sensor_id;sensor_type;location;lat;lon;timestamp;P1;durP1;ratioP1;P2;durP2;ratioP2
46719;SDS011;32452;51.382;-0.002;2024-01-25T00:01:43;32.70;;;5.90;;
46719;SDS011;32452;51.382;-0.002;2024-01-25T00:04:30;36.88;;;7.55;;
46719;SDS011;32452;51.382;-0.002;2024-01-25T00:07:16;35.60;;;6.72;;
46719;SDS011;32452;51.382;-0.002;2024-01-25T00:10:02;32.90;;;8.00;;
46719;SDS011;32452;51.382;-0.002;2024-01-25T00:12:52;32.70;;;6.20;;
46719;SDS011;32452;51.382;-0.002;2024-01-25T00:15:37;39.67;;;7.30;;
46719;SDS011;32452;51.382;-0.002;2024-01-25T00:18:23;38.72;;;7.47;;
46719;SDS011;32452;51.382;-0.002;2024-01-25T00:21:09;31.25;;;8.23;;
46719;SDS011;32452;51.382;-0.002;2024-01-25T00:23:55;31.23;;;6.65;;
46719;SDS011;32452;51.382;-0.002;2024-01-25T00:26:40;44.78;;;7.55;;
46719;SDS011;32452;51.382;-0.002;2024-01-25T00:29:26;33.38;;;5.93;;
46719;SDS011;32452;51.382;-0.002;2024-01-25T00:32:11;39.03;;;6.45;;
46719;SDS011;32452;51.382;-0.002;2024-01-25T00:34:57;28.75;;;5.75;;
46719;SDS011;32452;51.382;-0.002;2024-01-25T00:37:43;29.08;;;5.90;;
46719;SDS011;32452;51.382;-0.002;2024-01-25T00:40:29;34.47;;;6.75;;
46719;SDS011;32452;51.382;-0.002;2024-01-25T00:43:15;42.20;;;7.03;;
46719;SDS011;32452;51.382;-0.002;2024-01-25T00:46:01;35.30;;;8.13;;
46719;SDS011;32452;51.382;-0.002;2024-01-25T00:48:49;35.10;;;6.25;;
46719;SDS011;32452;51.382;-0.002;2024-01-25T00:51:39;32.88;;;6.47;;
46719;SDS011;32452;51.382;-0.002;2024-01-25T00:54:32;26.55;;;6.07;;
46719;SDS011;32452;51.382;-0.002;2024-01-25T00:57:18;35.53;;;6.47;;
46719;SDS011;32452;51.382;-0.002;2024-01-25T01:00:03;32.63;;;7.47;;
46719;SDS011;32452;51.382;-0.002;2024-01-25T01:02:50;36.10;;;7.25;;
46719;SDS011;32452;51.382;-0.002;2024-01-25T01:05:37;27.65;;;6.10;;
46719;SDS011;32452;51.382;-0.002;2024-01-25T01:08:23;35.30;;;6.38;;
46719;SDS011;32452;51.382;-0.002;2024-01-25T01:11:09;34.90;;;7.93;;
46719;SDS011;32452;51.382;-0.002;2024-01-25T01:13:55;31.30;;;7.03;;
46719;SDS011;32452;51.382;-0.002;2024-01-25T01:16:41;38.03;;;8.18;;
46719;SDS011;32452;51.382;-0.002;2024-01-25T01:19:26;36.10;;;5.93;;
46719;SDS011;32452;51.382;-0.002;2024-01-25T01:22:12;38.38;;;7.13;;
46719;SDS011;32452;51.382;-0.002;2024-01-25T01:24:58;35.90;;;7.20;;
46719;SDS011;32452;51.382;-0.002;2024-01-25T01:27:43;33.42;;;7.63;;
46719;SDS011;32452;51.382;-0.002;2024-01-25T01:30:29;37.13;;;6.70;;
46719;SDS011;32452;51.382;-0.002;2024-01-25T01:33:14;34.45;;;6.85;;
46719;SDS011;32452;51.382;-0.002;2024-01-25T01:36:00;38.15;;;7.15;;
46719;SDS011;32452;51.382;-0.002;2024-01-25T01:38:46;36.80;;;6.45;;
46719;SDS011;32452;51.382;-0.002;2024-01-25T01:41:31;38.50;;;6.95;;
46719;SDS011;32452;51.382;-0.002;2024-01-25T01:44:17;34.10;;;7.95;;
46719;SDS011;32452;51.382;-0.002;2024-01-25T01:47:03;30.00;;;5.88;;
46719;SDS011;32452;51.382;-0.002;2024-01-25T01:49:49;33.78;;;7.70;;
46719;SDS011;32452;51.382;-0.002;2024-01-25T01:52:35;33.30;;;6.22;;
46719;SDS011;32452;51.382;-0.002;2024-01-25T01:55:21;44.70;;;9.10;;
46719;SDS011;32452;51.382;-0.002;2024-01-25T01:58:08;41.97;;;7.82;;
46719;SDS011;32452;51.382;-0.002;2024-01-25T02:00:55;39.30;;;7.28;;
46719;SDS011;32452;51.382;-0.002;2024-01-25T02:03:42;33.53;;;8.13;;
46719;SDS011;32452;51.382;-0.002;2024-01-25T02:06:27;36.75;;;7.22;;
46719;SDS011;32452;51.382;-0.002;2024-01-25T02:09:13;28.05;;;6.40;;
46719;SDS011;32452;51.382;-0.002;2024-01-25T02:11:59;30.05;;;7.03;;
46719;SDS011;32452;51.382;-0.002;2024-01-25T02:14:48;27.00;;;6.25;;
46719;SDS011;32452;51.382;-0.002;2024-01-25T02:17:35;29.17;;;6.35;;
46719;SDS011;32452;51.382;-0.002;2024-01-25T02:20:21;30.55;;;6.50;;
46719;SDS011;32452;51.382;-0.002;2024-01-25T02:23:07;36.38;;;6.72;;
46719;SDS011;32452;51.382;-0.002;2024-01-25T02:25:52;34.50;;;6.47;;
46719;SDS011;32452;51.382;-0.002;2024-01-25T02:28:38;29.45;;;6.93;;
46719;SDS011;32452;51.382;-0.002;2024-01-25T02:31:24;33.83;;;7.85;;
46719;SDS011;32452;51.382;-0.002;2024-01-25T02:34:10;26.50;;;6.10;;
46719;SDS011;32452;51.382;-0.002;2024-01-25T02:36:55;29.83;;;6.65;;
46719;SDS011;32452;51.382;-0.002;2024-01-25T02:39:41;33.28;;;6.45;;
46719;SDS011;32452;51.382;-0.002;2024-01-25T02:42:27;31.73;;;6.88;;
46719;SDS011;32452;51.382;-0.002;2024-01-25T02:45:13;24.65;;;5.82;;
46719;SDS011;32452;51.382;-0.002;2024-01-25T02:47:58;31.92;;;6.55;;
46719;SDS011;32452;51.382;-0.002;2024-01-25T02:50:45;24.50;;;5.43;;
46719;SDS011;32452;51.382;-0.002;2024-01-25T02:53:30;25.63;;;5.38;;
46719;SDS011;32452;51.382;-0.002;2024-01-25T02:56:16;31.00;;;7.47;;
46719;SDS011;32452;51.382;-0.002;2024-01-25T02:59:01;30.65;;;5.22;;
46719;SDS011;32452;51.382;-0.002;2024-01-25T03:01:48;40.35;;;6.18;;
46719;SDS011;32452;51.382;-0.002;2024-01-25T03:04:35;30.40;;;5.57;;
46719;SDS011;32452;51.382;-0.002;2024-01-25T03:07:20;25.20;;;6.60;;
46719;SDS011;32452;51.382;-0.002;2024-01-25T03:10:06;27.88;;;5.60;;
46719;SDS011;32452;51.382;-0.002;2024-01-25T03:12:52;40.70;;;8.35;;
46719;SDS011;32452;51.382;-0.002;2024-01-25T03:15:39;29.05;;;7.05;;
46719;SDS011;32452;51.382;-0.002;2024-01-25T03:18:25;25.65;;;6.13;;
46719;SDS011;32452;51.382;-0.002;2024-01-25T03:21:11;22.38;;;5.35;;
46719;SDS011;32452;51.382;-0.002;2024-01-25T03:23:57;27.98;;;5.35;;
46719;SDS011;32452;51.382;-0.002;2024-01-25T03:26:43;31.02;;;5.63;;
46719;SDS011;32452;51.382;-0.002;2024-01-25T03:29:28;28.40;;;6.07;;
46719;SDS011;32452;51.382;-0.002;2024-01-25T03:32:14;29.13;;;6.53;;
46719;SDS011;32452;51.382;-0.002;2024-01-25T03:35:00;28.42;;;6.18;;
46719;SDS011;32452;51.382;-0.002;2024-01-25T03:37:46;27.33;;;6.45;;
46719;SDS011;32452;51.382;-0.002;2024-01-25T03:40:32;29.92;;;5.60;;
46719;SDS011;32452;51.382;-0.002;2024-01-25T03:43:18;35.15;;;6.80;;
46719;SDS011;32452;51.382;-0.002;2024-01-25T03:46:08;33.75;;;6.15;;
46719;SDS011;32452;51.382;-0.002;2024-01-25T03:48:54;36.50;;;8.73;;
46719;SDS011;32452;51.382;-0.002;2024-01-25T03:51:41;36.30;;;7.22;;
46719;SDS011;32452;51.382;-0.002;2024-01-25T03:54:28;28.80;;;6.45;;
46719;SDS011;32452;51.382;-0.002;2024-01-25T03:57:14;33.05;;;6.78;;
46719;SDS011;32452;51.382;-0.002;2024-01-25T04:00:00;25.90;;;6.13;;
46719;SDS011;32452;51.382;-0.002;2024-01-25T04:02:46;22.17;;;7.20;;
46719;SDS011;32452;51.382;-0.002;2024-01-25T04:05:32;30.33;;;5.75;;
46719;SDS011;32452;51.382;-0.002;2024-01-25T04:08:18;28.83;;;6.45;;
46719;SDS011;32452;51.382;-0.002;2024-01-25T04:11:04;39.17;;;6.28;;
46719;SDS011;32452;51.382;-0.002;2024-01-25T04:13:53;40.63;;;7.85;;
46719;SDS011;32452;51.382;-0.002;2024-01-25T04:16:40;35.67;;;6.72;;
46719;SDS011;32452;51.382;-0.002;2024-01-25T04:19:25;34.65;;;6.78;;
46719;SDS011;32452;51.382;-0.002;2024-01-25T04:22:11;23.15;;;6.60;;
46719;SDS011;32452;51.382;-0.002;2024-01-25T04:24:57;20.20;;;4.90;;
46719;SDS011;32452;51.382;-0.002;2024-01-25T04:27:44;32.42;;;5.88;;
46719;SDS011;32452;51.382;-0.002;2024-01-25T04:30:30;33.15;;;6.72;;
46719;SDS011;32452;51.382;-0.002;2024-01-25T04:33:18;31.48;;;6.45;;
46719;SDS011;32452;51.382;-0.002;2024-01-25T04:36:04;28.75;;;6.55;;
46719;SDS011;32452;51.382;-0.002;2024-01-25T04:38:50;29.42;;;5.38;;
46719;SDS011;32452;51.382;-0.002;2024-01-25T04:41:36;26.05;;;7.00;;
46719;SDS011;32452;51.382;-0.002;2024-01-25T04:44:21;24.08;;;4.68;;
46719;SDS011;32452;51.382;-0.002;2024-01-25T04:47:08;24.27;;;6.15;;
46719;SDS011;32452;51.382;-0.002;2024-01-25T04:49:54;26.23;;;5.05;;
46719;SDS011;32452;51.382;-0.002;2024-01-25T04:52:40;40.83;;;6.38;;
46719;SDS011;32452;51.382;-0.002;2024-01-25T04:55:25;32.53;;;5.80;;
46719;SDS011;32452;51.382;-0.002;2024-01-25T04:58:11;27.30;;;5.60;;
46719;SDS011;32452;51.382;-0.002;2024-01-25T05:00:57;36.67;;;6.53;;
46719;SDS011;32452;51.382;-0.002;2024-01-25T05:03:43;24.48;;;5.25;;
46719;SDS011;32452;51.382;-0.002;2024-01-25T05:06:28;27.67;;;5.38;;
46719;SDS011;32452;51.382;-0.002;2024-01-25T05:09:14;26.83;;;5.03;;
46719;SDS011;32452;51.382;-0.002;2024-01-25T05:11:59;36.47;;;5.30;;
46719;SDS011;32452;51.382;-0.002;2024-01-25T05:14:47;28.02;;;6.53;;
46719;SDS011;32452;51.382;-0.002;2024-01-25T05:17:33;24.55;;;6.28;;
46719;SDS011;32452;51.382;-0.002;2024-01-25T05:20:19;33.80;;;6.13;;
46719;SDS011;32452;51.382;-0.002;2024-01-25T05:23:05;28.20;;;6.68;;
46719;SDS011;32452;51.382;-0.002;2024-01-25T05:25:51;30.45;;;6.43;;
46719;SDS011;32452;51.382;-0.002;2024-01-25T05:28:37;35.35;;;8.20;;
46719;SDS011;32452;51.382;-0.002;2024-01-25T05:31:23;35.53;;;8.95;;
46719;SDS011;32452;51.382;-0.002;2024-01-25T05:34:08;35.40;;;7.82;;
46719;SDS011;32452;51.382;-0.002;2024-01-25T05:36:54;38.60;;;8.15;;
46719;SDS011;32452;51.382;-0.002;2024-01-25T05:39:40;28.88;;;6.18;;
46719;SDS011;32452;51.382;-0.002;2024-01-25T05:42:26;33.53;;;7.03;;
46719;SDS011;32452;51.382;-0.002;2024-01-25T05:45:11;38.00;;;7.63;;
46719;SDS011;32452;51.382;-0.002;2024-01-25T05:47:57;34.92;;;7.55;;
46719;SDS011;32452;51.382;-0.002;2024-01-25T05:50:43;42.65;;;8.18;;
46719;SDS011;32452;51.382;-0.002;2024-01-25T05:53:29;39.75;;;7.72;;
46719;SDS011;32452;51.382;-0.002;2024-01-25T05:56:15;34.38;;;7.10;;
46719;SDS011;32452;51.382;-0.002;2024-01-25T05:59:00;44.15;;;8.45;;
46719;SDS011;32452;51.382;-0.002;2024-01-25T06:01:46;37.22;;;7.80;;
46719;SDS011;32452;51.382;-0.002;2024-01-25T06:04:32;52.47;;;9.00;;
46719;SDS011;32452;51.382;-0.002;2024-01-25T06:07:18;42.40;;;8.13;;
46719;SDS011;32452;51.382;-0.002;2024-01-25T06:10:06;42.22;;;10.15;;
46719;SDS011;32452;51.382;-0.002;2024-01-25T06:12:52;41.88;;;8.40;;
46719;SDS011;32452;51.382;-0.002;2024-01-25T06:15:38;27.67;;;7.03;;
46719;SDS011;32452;51.382;-0.002;2024-01-25T06:18:23;31.88;;;7.30;;
46719;SDS011;32452;51.382;-0.002;2024-01-25T06:21:09;34.60;;;7.80;;
46719;SDS011;32452;51.382;-0.002;2024-01-25T06:23:55;30.25;;;7.47;;
46719;SDS011;32452;51.382;-0.002;2024-01-25T06:26:41;28.25;;;7.22;;
46719;SDS011;32452;51.382;-0.002;2024-01-25T06:29:26;35.83;;;7.93;;
46719;SDS011;32452;51.382;-0.002;2024-01-25T06:32:12;26.45;;;6.88;;
46719;SDS011;32452;51.382;-0.002;2024-01-25T06:35:10;32.10;;;8.13;;
46719;SDS011;32452;51.382;-0.002;2024-01-25T06:37:55;35.38;;;8.15;;
46719;SDS011;32452;51.382;-0.002;2024-01-25T06:40:41;33.38;;;7.63;;
46719;SDS011;32452;51.382;-0.002;2024-01-25T06:43:26;32.42;;;7.78;;
46719;SDS011;32452;51.382;-0.002;2024-01-25T06:46:12;30.52;;;9.07;;
46719;SDS011;32452;51.382;-0.002;2024-01-25T06:48:58;29.45;;;7.45;;
46719;SDS011;32452;51.382;-0.002;2024-01-25T06:51:44;24.25;;;6.10;;
46719;SDS011;32452;51.382;-0.002;2024-01-25T06:54:31;16.80;;;4.85;;
46719;SDS011;32452;51.382;-0.002;2024-01-25T06:57:20;23.45;;;4.97;;
46719;SDS011;32452;51.382;-0.002;2024-01-25T07:00:06;21.67;;;4.95;;
46719;SDS011;32452;51.382;-0.002;2024-01-25T07:02:53;21.33;;;5.40;;
46719;SDS011;32452;51.382;-0.002;2024-01-25T07:05:39;20.73;;;5.28;;
46719;SDS011;32452;51.382;-0.002;2024-01-25T07:08:25;22.98;;;3.85;;
46719;SDS011;32452;51.382;-0.002;2024-01-25T07:11:11;24.05;;;6.30;;
46719;SDS011;32452;51.382;-0.002;2024-01-25T07:13:57;17.55;;;4.88;;
46719;SDS011;32452;51.382;-0.002;2024-01-25T07:16:42;19.33;;;5.97;;
46719;SDS011;32452;51.382;-0.002;2024-01-25T07:19:28;20.70;;;5.68;;
46719;SDS011;32452;51.382;-0.002;2024-01-25T07:22:14;19.92;;;5.80;;
46719;SDS011;32452;51.382;-0.002;2024-01-25T07:25:00;17.08;;;4.32;;
46719;SDS011;32452;51.382;-0.002;2024-01-25T07:27:46;20.98;;;5.47;;
46719;SDS011;32452;51.382;-0.002;2024-01-25T07:30:32;22.60;;;5.85;;
46719;SDS011;32452;51.382;-0.002;2024-01-25T07:33:18;22.48;;;5.13;;
46719;SDS011;32452;51.382;-0.002;2024-01-25T07:36:04;13.55;;;4.70;;
46719;SDS011;32452;51.382;-0.002;2024-01-25T07:38:50;19.40;;;4.72;;
46719;SDS011;32452;51.382;-0.002;2024-01-25T07:41:36;19.52;;;5.35;;
46719;SDS011;32452;51.382;-0.002;2024-01-25T07:44:22;21.90;;;4.72;;
46719;SDS011;32452;51.382;-0.002;2024-01-25T07:47:08;18.83;;;4.68;;
46719;SDS011;32452;51.382;-0.002;2024-01-25T07:49:53;14.50;;;4.00;;
46719;SDS011;32452;51.382;-0.002;2024-01-25T07:52:39;15.25;;;5.47;;
46719;SDS011;32452;51.382;-0.002;2024-01-25T07:55:25;20.58;;;5.10;;
46719;SDS011;32452;51.382;-0.002;2024-01-25T07:58:11;13.60;;;3.80;;
46719;SDS011;32452;51.382;-0.002;2024-01-25T08:00:57;15.60;;;3.92;;
46719;SDS011;32452;51.382;-0.002;2024-01-25T08:03:43;15.30;;;3.63;;
46719;SDS011;32452;51.382;-0.002;2024-01-25T08:06:28;11.10;;;2.90;;
46719;SDS011;32452;51.382;-0.002;2024-01-25T08:09:14;10.48;;;2.78;;
46719;SDS011;32452;51.382;-0.002;2024-01-25T08:11:59;6.90;;;2.33;;
46719;SDS011;32452;51.382;-0.002;2024-01-25T08:14:45;9.52;;;2.50;;
46719;SDS011;32452;51.382;-0.002;2024-01-25T08:17:31;6.70;;;2.13;;
46719;SDS011;32452;51.382;-0.002;2024-01-25T08:20:18;9.82;;;2.17;;
46719;SDS011;32452;51.382;-0.002;2024-01-25T08:23:06;6.88;;;1.90;;
46719;SDS011;32452;51.382;-0.002;2024-01-25T08:25:54;6.88;;;2.05;;
46719;SDS011;32452;51.382;-0.002;2024-01-25T08:28:40;3.53;;;1.85;;
46719;SDS011;32452;51.382;-0.002;2024-01-25T08:31:26;6.75;;;2.00;;
46719;SDS011;32452;51.382;-0.002;2024-01-25T08:34:13;4.65;;;2.17;;
46719;SDS011;32452;51.382;-0.002;2024-01-25T08:36:59;9.60;;;2.40;;
46719;SDS011;32452;51.382;-0.002;2024-01-25T08:39:45;13.18;;;3.00;;
46719;SDS011;32452;51.382;-0.002;2024-01-25T08:42:34;11.73;;;3.35;;
46719;SDS011;32452;51.382;-0.002;2024-01-25T08:45:19;10.15;;;3.13;;
46719;SDS011;32452;51.382;-0.002;2024-01-25T08:48:05;9.57;;;3.85;;
46719;SDS011;32452;51.382;-0.002;2024-01-25T08:50:54;9.05;;;3.95;;
46719;SDS011;32452;51.382;-0.002;2024-01-25T08:53:39;14.57;;;5.13;;
46719;SDS011;32452;51.382;-0.002;2024-01-25T08:56:25;13.93;;;4.53;;
46719;SDS011;32452;51.382;-0.002;2024-01-25T08:59:11;10.55;;;4.57;;
46719;SDS011;32452;51.382;-0.002;2024-01-25T09:01:57;13.68;;;5.40;;
46719;SDS011;32452;51.382;-0.002;2024-01-25T09:04:43;12.27;;;4.57;;
46719;SDS011;32452;51.382;-0.002;2024-01-25T09:07:29;15.02;;;4.95;;
46719;SDS011;32452;51.382;-0.002;2024-01-25T09:10:14;10.98;;;4.68;;
46719;SDS011;32452;51.382;-0.002;2024-01-25T09:13:00;10.90;;;3.95;;
46719;SDS011;32452;51.382;-0.002;2024-01-25T09:15:46;13.13;;;4.00;;
46719;SDS011;32452;51.382;-0.002;2024-01-25T09:18:32;10.13;;;4.00;;
46719;SDS011;32452;51.382;-0.002;2024-01-25T09:21:18;14.27;;;5.28;;
46719;SDS011;32452;51.382;-0.002;2024-01-25T09:24:03;13.10;;;4.10;;
46719;SDS011;32452;51.382;-0.002;2024-01-25T09:26:49;12.15;;;4.03;;
46719;SDS011;32452;51.382;-0.002;2024-01-25T09:29:35;13.82;;;4.25;;
46719;SDS011;32452;51.382;-0.002;2024-01-25T09:32:23;8.80;;;4.25;;
46719;SDS011;32452;51.382;-0.002;2024-01-25T09:35:09;10.55;;;4.70;;
46719;SDS011;32452;51.382;-0.002;2024-01-25T09:37:55;12.00;;;4.85;;
46719;SDS011;32452;51.382;-0.002;2024-01-25T09:40:40;12.40;;;4.88;;
46719;SDS011;32452;51.382;-0.002;2024-01-25T09:43:26;13.65;;;4.68;;
46719;SDS011;32452;51.382;-0.002;2024-01-25T09:46:13;13.85;;;5.25;;
46719;SDS011;32452;51.382;-0.002;2024-01-25T09:49:02;12.52;;;4.32;;
46719;SDS011;32452;51.382;-0.002;2024-01-25T09:51:48;14.63;;;4.72;;
46719;SDS011;32452;51.382;-0.002;2024-01-25T09:54:57;14.95;;;4.88;;
46719;SDS011;32452;51.382;-0.002;2024-01-25T09:57:44;12.15;;;4.25;;
46719;SDS011;32452;51.382;-0.002;2024-01-25T10:00:31;13.52;;;4.88;;
46719;SDS011;32452;51.382;-0.002;2024-01-25T10:03:18;12.25;;;4.45;;
46719;SDS011;32452;51.382;-0.002;2024-01-25T10:06:05;12.98;;;4.07;;
46719;SDS011;32452;51.382;-0.002;2024-01-25T10:08:52;12.30;;;4.07;;
46719;SDS011;32452;51.382;-0.002;2024-01-25T10:11:38;13.35;;;4.15;;
46719;SDS011;32452;51.382;-0.002;2024-01-25T10:14:31;17.55;;;4.57;;
46719;SDS011;32452;51.382;-0.002;2024-01-25T10:17:16;16.83;;;4.70;;
46719;SDS011;32452;51.382;-0.002;2024-01-25T10:20:04;10.15;;;2.97;;
46719;SDS011;32452;51.382;-0.002;2024-01-25T10:22:57;13.95;;;3.25;;
46719;SDS011;32452;51.382;-0.002;2024-01-25T10:25:45;12.40;;;2.95;;
46719;SDS011;32452;51.382;-0.002;2024-01-25T10:28:31;9.20;;;3.90;;
46719;SDS011;32452;51.382;-0.002;2024-01-25T10:31:18;10.95;;;2.67;;
46719;SDS011;32452;51.382;-0.002;2024-01-25T10:34:03;9.93;;;2.42;;
46719;SDS011;32452;51.382;-0.002;2024-01-25T10:36:50;11.77;;;2.95;;
46719;SDS011;32452;51.382;-0.002;2024-01-25T10:39:38;12.00;;;3.05;;
46719;SDS011;32452;51.382;-0.002;2024-01-25T10:42:25;8.38;;;2.70;;
46719;SDS011;32452;51.382;-0.002;2024-01-25T10:45:12;13.20;;;3.22;;
46719;SDS011;32452;51.382;-0.002;2024-01-25T10:47:58;7.45;;;3.20;;
46719;SDS011;32452;51.382;-0.002;2024-01-25T10:50:45;13.43;;;3.08;;
46719;SDS011;32452;51.382;-0.002;2024-01-25T10:53:33;12.82;;;3.17;;
46719;SDS011;32452;51.382;-0.002;2024-01-25T10:56:20;12.23;;;2.90;;
46719;SDS011;32452;51.382;-0.002;2024-01-25T10:59:06;9.00;;;2.72;;
46719;SDS011;32452;51.382;-0.002;2024-01-25T11:01:54;11.00;;;2.75;;
46719;SDS011;32452;51.382;-0.002;2024-01-25T11:04:40;11.48;;;3.38;;
46719;SDS011;32452;51.382;-0.002;2024-01-25T11:07:41;13.43;;;4.20;;
46719;SDS011;32452;51.382;-0.002;2024-01-25T11:10:34;14.10;;;3.50;;
46719;SDS011;32452;51.382;-0.002;2024-01-25T11:13:23;13.80;;;3.78;;
46719;SDS011;32452;51.382;-0.002;2024-01-25T11:16:15;13.95;;;4.10;;
46719;SDS011;32452;51.382;-0.002;2024-01-25T11:19:22;15.57;;;3.50;;
46719;SDS011;32452;51.382;-0.002;2024-01-25T11:22:10;14.13;;;3.53;;
46719;SDS011;32452;51.382;-0.002;2024-01-25T11:24:56;14.02;;;3.38;;
46719;SDS011;32452;51.382;-0.002;2024-01-25T11:27:42;15.57;;;4.15;;
46719;SDS011;32452;51.382;-0.002;2024-01-25T11:30:29;10.45;;;3.63;;
46719;SDS011;32452;51.382;-0.002;2024-01-25T11:33:17;20.83;;;4.55;;
46719;SDS011;32452;51.382;-0.002;2024-01-25T11:36:05;19.45;;;4.95;;
46719;SDS011;32452;51.382;-0.002;2024-01-25T11:38:51;11.15;;;3.45;;
46719;SDS011;32452;51.382;-0.002;2024-01-25T11:41:36;14.20;;;4.30;;
46719;SDS011;32452;51.382;-0.002;2024-01-25T11:44:22;13.15;;;3.85;;
46719;SDS011;32452;51.382;-0.002;2024-01-25T11:47:09;19.52;;;4.70;;
46719;SDS011;32452;51.382;-0.002;2024-01-25T11:49:55;14.15;;;3.90;;
46719;SDS011;32452;51.382;-0.002;2024-01-25T11:52:41;15.18;;;4.03;;
46719;SDS011;32452;51.382;-0.002;2024-01-25T11:55:27;22.60;;;4.75;;
46719;SDS011;32452;51.382;-0.002;2024-01-25T11:58:13;15.43;;;3.70;;
46719;SDS011;32452;51.382;-0.002;2024-01-25T12:00:59;21.27;;;4.43;;
46719;SDS011;32452;51.382;-0.002;2024-01-25T12:03:45;13.60;;;3.85;;
46719;SDS011;32452;51.382;-0.002;2024-01-25T12:06:31;18.50;;;3.42;;
46719;SDS011;32452;51.382;-0.002;2024-01-25T12:09:17;14.93;;;4.15;;
46719;SDS011;32452;51.382;-0.002;2024-01-25T12:12:03;13.63;;;3.38;;
46719;SDS011;32452;51.382;-0.002;2024-01-25T12:14:50;15.23;;;3.63;;
46719;SDS011;32452;51.382;-0.002;2024-01-25T12:17:38;14.85;;;3.08;;
46719;SDS011;32452;51.382;-0.002;2024-01-25T12:20:28;16.05;;;4.55;;
46719;SDS011;32452;51.382;-0.002;2024-01-25T12:23:15;14.75;;;3.42;;
46719;SDS011;32452;51.382;-0.002;2024-01-25T12:26:01;14.98;;;3.25;;
46719;SDS011;32452;51.382;-0.002;2024-01-25T12:28:59;11.77;;;3.88;;
46719;SDS011;32452;51.382;-0.002;2024-01-25T12:31:49;7.80;;;2.65;;
46719;SDS011;32452;51.382;-0.002;2024-01-25T12:34:35;12.40;;;3.78;;
46719;SDS011;32452;51.382;-0.002;2024-01-25T12:37:22;13.15;;;3.75;;
46719;SDS011;32452;51.382;-0.002;2024-01-25T12:40:09;13.85;;;3.30;;
46719;SDS011;32452;51.382;-0.002;2024-01-25T12:42:55;12.43;;;3.30;;
46719;SDS011;32452;51.382;-0.002;2024-01-25T12:45:41;15.98;;;3.42;;
46719;SDS011;32452;51.382;-0.002;2024-01-25T12:48:27;10.80;;;2.88;;
46719;SDS011;32452;51.382;-0.002;2024-01-25T12:51:12;11.15;;;2.70;;
46719;SDS011;32452;51.382;-0.002;2024-01-25T12:53:58;12.02;;;3.10;;
46719;SDS011;32452;51.382;-0.002;2024-01-25T12:56:44;17.60;;;3.45;;
46719;SDS011;32452;51.382;-0.002;2024-01-25T12:59:34;11.20;;;2.95;;
46719;SDS011;32452;51.382;-0.002;2024-01-25T13:02:21;19.48;;;3.63;;
46719;SDS011;32452;51.382;-0.002;2024-01-25T13:05:07;12.02;;;2.85;;
46719;SDS011;32452;51.382;-0.002;2024-01-25T13:07:53;12.88;;;3.13;;
46719;SDS011;32452;51.382;-0.002;2024-01-25T13:10:39;12.50;;;3.63;;
46719;SDS011;32452;51.382;-0.002;2024-01-25T13:13:25;18.08;;;4.75;;
46719;SDS011;32452;51.382;-0.002;2024-01-25T13:16:11;16.85;;;3.90;;
46719;SDS011;32452;51.382;-0.002;2024-01-25T13:18:56;10.27;;;3.38;;
46719;SDS011;32452;51.382;-0.002;2024-01-25T13:21:42;18.58;;;4.03;;
46719;SDS011;32452;51.382;-0.002;2024-01-25T13:24:28;9.75;;;2.88;;
46719;SDS011;32452;51.382;-0.002;2024-01-25T13:27:17;13.20;;;3.08;;
46719;SDS011;32452;51.382;-0.002;2024-01-25T13:30:03;17.23;;;3.92;;
46719;SDS011;32452;51.382;-0.002;2024-01-25T13:32:50;15.48;;;3.92;;
46719;SDS011;32452;51.382;-0.002;2024-01-25T13:35:35;16.75;;;2.97;;
46719;SDS011;32452;51.382;-0.002;2024-01-25T13:38:21;10.55;;;2.50;;
46719;SDS011;32452;51.382;-0.002;2024-01-25T13:41:06;19.02;;;2.97;;
46719;SDS011;32452;51.382;-0.002;2024-01-25T13:43:52;16.40;;;3.47;;
46719;SDS011;32452;51.382;-0.002;2024-01-25T13:46:38;12.80;;;2.55;;
46719;SDS011;32452;51.382;-0.002;2024-01-25T13:49:23;16.42;;;2.72;;
46719;SDS011;32452;51.382;-0.002;2024-01-25T13:52:14;11.88;;;2.47;;
46719;SDS011;32452;51.382;-0.002;2024-01-25T13:55:04;7.00;;;2.17;;
46719;SDS011;32452;51.382;-0.002;2024-01-25T13:57:50;17.50;;;2.55;;
46719;SDS011;32452;51.382;-0.002;2024-01-25T14:00:36;11.85;;;2.03;;
46719;SDS011;32452;51.382;-0.002;2024-01-25T14:03:21;10.43;;;2.53;;
46719;SDS011;32452;51.382;-0.002;2024-01-25T14:06:07;9.07;;;1.95;;
46719;SDS011;32452;51.382;-0.002;2024-01-25T14:08:55;8.13;;;1.98;;
46719;SDS011;32452;51.382;-0.002;2024-01-25T14:11:40;9.30;;;1.75;;
46719;SDS011;32452;51.382;-0.002;2024-01-25T14:14:27;7.95;;;2.33;;
46719;SDS011;32452;51.382;-0.002;2024-01-25T14:17:12;7.57;;;2.17;;
46719;SDS011;32452;51.382;-0.002;2024-01-25T14:19:58;9.30;;;2.08;;
46719;SDS011;32452;51.382;-0.002;2024-01-25T14:22:44;11.43;;;1.92;;
46719;SDS011;32452;51.382;-0.002;2024-01-25T14:25:30;11.48;;;3.05;;
46719;SDS011;32452;51.382;-0.002;2024-01-25T14:28:16;5.43;;;1.88;;
46719;SDS011;32452;51.382;-0.002;2024-01-25T14:31:02;15.13;;;3.28;;
46719;SDS011;32452;51.382;-0.002;2024-01-25T14:33:48;8.13;;;1.92;;
46719;SDS011;32452;51.382;-0.002;2024-01-25T14:36:35;8.73;;;2.05;;
46719;SDS011;32452;51.382;-0.002;2024-01-25T14:39:21;10.52;;;3.00;;
46719;SDS011;32452;51.382;-0.002;2024-01-25T14:42:10;9.18;;;3.42;;
46719;SDS011;32452;51.382;-0.002;2024-01-25T14:44:56;9.57;;;2.35;;
46719;SDS011;32452;51.382;-0.002;2024-01-25T14:47:42;10.43;;;3.00;;
46719;SDS011;32452;51.382;-0.002;2024-01-25T14:50:27;7.05;;;2.42;;
46719;SDS011;32452;51.382;-0.002;2024-01-25T14:53:13;9.93;;;2.25;;
46719;SDS011;32452;51.382;-0.002;2024-01-25T14:55:59;6.45;;;1.85;;
46719;SDS011;32452;51.382;-0.002;2024-01-25T14:58:45;11.45;;;2.05;;
46719;SDS011;32452;51.382;-0.002;2024-01-25T15:01:30;13.93;;;2.10;;
46719;SDS011;32452;51.382;-0.002;2024-01-25T15:04:17;9.98;;;2.30;;
46719;SDS011;32452;51.382;-0.002;2024-01-25T15:07:04;11.43;;;2.70;;
46719;SDS011;32452;51.382;-0.002;2024-01-25T15:09:49;10.48;;;2.50;;
46719;SDS011;32452;51.382;-0.002;2024-01-25T15:12:35;9.25;;;2.22;;
46719;SDS011;32452;51.382;-0.002;2024-01-25T15:15:21;8.45;;;1.58;;
46719;SDS011;32452;51.382;-0.002;2024-01-25T15:18:07;9.00;;;1.88;;
46719;SDS011;32452;51.382;-0.002;2024-01-25T15:20:53;12.30;;;3.65;;
46719;SDS011;32452;51.382;-0.002;2024-01-25T15:23:38;6.95;;;1.77;;
46719;SDS011;32452;51.382;-0.002;2024-01-25T15:26:24;7.68;;;2.10;;
46719;SDS011;32452;51.382;-0.002;2024-01-25T15:29:10;7.22;;;1.70;;
46719;SDS011;32452;51.382;-0.002;2024-01-25T15:31:56;9.15;;;2.25;;
46719;SDS011;32452;51.382;-0.002;2024-01-25T15:34:42;10.55;;;3.15;;
46719;SDS011;32452;51.382;-0.002;2024-01-25T15:37:27;8.40;;;2.65;;
46719;SDS011;32452;51.382;-0.002;2024-01-25T15:40:13;12.98;;;2.67;;
46719;SDS011;32452;51.382;-0.002;2024-01-25T15:43:04;10.70;;;2.13;;
46719;SDS011;32452;51.382;-0.002;2024-01-25T15:45:49;12.15;;;2.13;;
46719;SDS011;32452;51.382;-0.002;2024-01-25T15:48:35;10.80;;;2.45;;
46719;SDS011;32452;51.382;-0.002;2024-01-25T15:51:21;6.55;;;2.03;;
46719;SDS011;32452;51.382;-0.002;2024-01-25T15:54:11;7.70;;;2.00;;
46719;SDS011;32452;51.382;-0.002;2024-01-25T15:56:56;4.97;;;1.65;;
46719;SDS011;32452;51.382;-0.002;2024-01-25T15:59:42;6.45;;;1.88;;
46719;SDS011;32452;51.382;-0.002;2024-01-25T16:02:27;9.10;;;2.83;;
46719;SDS011;32452;51.382;-0.002;2024-01-25T16:05:13;7.40;;;2.03;;
46719;SDS011;32452;51.382;-0.002;2024-01-25T16:07:59;7.53;;;1.80;;
46719;SDS011;32452;51.382;-0.002;2024-01-25T16:10:45;6.95;;;2.17;;
46719;SDS011;32452;51.382;-0.002;2024-01-25T16:13:30;10.95;;;2.28;;
46719;SDS011;32452;51.382;-0.002;2024-01-25T16:16:16;7.03;;;1.95;;